Time;durP1;ratioP1;P1;durP2;ratioP2;P2;SDS_P1;SDS_P2;PMS_P1;PMS_P2;Temp;Humidity;BMP_temperature;BMP_pressure;BME280_temperature;BME280_humidity;BME280_pressure;Samples;Min_cycle;Max_cycle;Signal;HPM_P1;HPM_P2
2022/05/07 00:00:22;;;;;;;11.88;8.52;;;;;;;9.80;100.00;101274.88;5028772;28;20948;-62
2022/05/07 00:02:48;;;;;;;9.95;8.05;;;;;;;9.80;100.00;101282.75;5029693;28;20024;-62
2022/05/07 00:05:13;;;;;;;11.13;8.52;;;;;;;9.55;100.00;101235.47;5030896;28;20958;-63
2022/05/07 00:07:39;;;;;;;11.30;7.60;;;;;;;9.72;100.00;101266.41;5033579;28;20136;-62
2022/05/07 00:10:05;;;;;;;13.95;8.48;;;;;;;9.51;100.00;101230.38;5031456;28;20028;-62
2022/05/07 00:12:30;;;;;;;12.95;8.68;;;;;;;9.60;100.00;101249.28;5029955;28;20032;-62
2022/05/07 00:14:56;;;;;;;11.27;9.10;;;;;;;9.72;100.00;101269.91;5029857;28;20028;-61
2022/05/07 00:20:05;;;;;;;13.27;9.15;;;;;;;9.61;100.00;101242.28;5029476;28;20074;-61
2022/05/07 00:22:31;;;;;;;12.95;8.73;;;;;;;9.60;100.00;101248.44;5027267;28;20988;-62
2022/05/07 00:24:56;;;;;;;14.05;9.48;;;;;;;9.64;100.00;101258.78;5028947;28;20142;-62
2022/05/07 00:27:21;;;;;;;9.95;8.68;;;;;;;9.64;100.00;101265.78;5028987;28;20083;-62
2022/05/07 00:29:47;;;;;;;15.00;9.30;;;;;;;9.56;100.00;101249.47;5027257;28;20039;-62
2022/05/07 00:32:13;;;;;;;13.25;9.75;;;;;;;9.34;100.00;101230.03;5027003;28;20031;-62
2022/05/07 00:34:38;;;;;;;10.63;7.88;;;;;;;9.57;100.00;101259.88;5027659;28;20024;-61
2022/05/07 00:37:04;;;;;;;10.10;8.43;;;;;;;9.54;100.00;101260.00;5027056;28;20974;-62
2022/05/07 00:39:33;;;;;;;13.02;9.48;;;;;;;9.56;100.00;101262.56;5027183;28;20953;-61
2022/05/07 00:42:05;;;;;;;10.68;8.82;;;;;;;9.48;100.00;101240.97;5027274;28;20040;-62
2022/05/07 00:44:32;;;;;;;10.82;8.38;;;;;;;9.54;100.00;101252.13;5026805;28;20144;-62
2022/05/07 00:47:23;;;;;;;10.00;8.07;;;;;;;9.35;100.00;101224.78;5028553;28;20029;-62
2022/05/07 00:49:51;;;;;;;11.88;8.75;;;;;;;9.49;100.00;101245.31;5028669;28;20039;-62
2022/05/07 00:52:18;;;;;;;15.10;9.02;;;;;;;9.55;100.00;101255.59;5042385;28;20028;-62
2022/05/07 00:54:44;;;;;;;12.25;8.45;;;;;;;9.55;100.00;101250.34;5027095;28;20381;-62
2022/05/07 00:57:11;;;;;;;16.25;10.07;;;;;;;9.48;100.00;101248.84;5026626;28;20059;-62
2022/05/07 00:59:37;;;;;;;10.45;8.70;;;;;;;9.47;100.00;101242.72;5028117;28;20035;-62
2022/05/07 01:02:02;;;;;;;10.40;9.15;;;;;;;9.41;100.00;101231.56;5026573;28;20025;-62
2022/05/07 01:04:28;;;;;;;13.20;8.88;;;;;;;9.46;100.00;101238.38;5026627;28;20070;-62
2022/05/07 01:06:53;;;;;;;13.50;9.20;;;;;;;9.42;100.00;101233.28;5008544;28;20021;-62
2022/05/07 01:09:19;;;;;;;11.25;8.68;;;;;;;9.50;100.00;101247.00;5026639;28;20035;-61
2022/05/07 01:11:45;;;;;;;14.85;8.63;;;;;;;9.47;100.00;101239.25;5026798;28;20066;-61
2022/05/07 01:14:10;;;;;;;12.30;9.77;;;;;;;9.35;100.00;101221.28;5010358;28;20036;-61
2022/05/07 01:16:38;;;;;;;10.35;7.63;;;;;;;9.17;100.00;101206.97;5026927;28;20079;-61
2022/05/07 01:19:04;;;;;;;18.40;9.93;;;;;;;9.30;100.00;101228.41;5026337;28;20074;-61
2022/05/07 01:21:30;;;;;;;12.55;9.85;;;;;;;9.28;100.00;101223.25;5027946;28;20036;-61
2022/05/07 01:23:55;;;;;;;11.25;8.88;;;;;;;9.30;100.00;101228.41;5008279;28;20056;-61
2022/05/07 01:26:22;;;;;;;16.05;9.90;;;;;;;9.26;100.00;101222.41;5025978;28;20035;-61
2022/05/07 01:28:48;;;;;;;14.52;10.55;;;;;;;9.40;100.00;101237.72;5047449;27;20032;-61
2022/05/07 01:31:14;;;;;;;13.10;9.18;;;;;;;9.43;100.00;101235.03;5046367;28;20021;-61
2022/05/07 01:33:40;;;;;;;12.52;9.23;;;;;;;9.16;100.00;101179.03;5047104;28;20990;-62
2022/05/07 01:36:16;;;;;;;14.25;9.23;;;;;;;9.51;100.00;101238.25;5047391;28;20135;-62
2022/05/07 01:38:41;;;;;;;13.40;11.13;;;;;;;9.50;100.00;101241.75;5047409;28;20036;-62
2022/05/07 01:41:07;;;;;;;16.70;10.85;;;;;;;9.46;100.00;101234.91;5046036;28;20935;-62
2022/05/07 01:43:32;;;;;;;11.73;10.50;;;;;;;9.44;100.00;101234.09;5046762;28;20063;-62
2022/05/07 01:46:01;;;;;;;17.45;12.80;;;;;;;9.43;100.00;101227.97;5046216;28;20134;-62
2022/05/07 01:48:27;;;;;;;14.20;10.80;;;;;;;9.34;100.00;101228.28;5058331;28;20030;-62
2022/05/07 01:50:52;;;;;;;12.65;10.75;;;;;;;9.33;100.00;101239.69;5066018;28;20029;-62
2022/05/07 01:53:18;;;;;;;20.60;13.05;;;;;;;9.33;100.00;101238.84;5048503;28;20024;-62
2022/05/07 01:55:44;;;;;;;14.57;11.18;;;;;;;9.14;100.00;101202.69;5066284;28;20792;-62
2022/05/07 01:58:10;;;;;;;16.48;12.23;;;;;;;9.29;100.00;101226.72;5067127;28;20893;-62
2022/05/07 02:00:35;;;;;;;13.73;11.68;;;;;;;9.02;100.00;101184.72;5066087;28;20023;-62
2022/05/07 02:03:01;;;;;;;13.75;10.05;;;;;;;9.02;100.00;101179.47;5066646;28;20030;-62
2022/05/07 02:05:27;;;;;;;13.45;11.35;;;;;;;9.27;100.00;101221.53;5048189;28;20837;-63
2022/05/07 02:07:54;;;;;;;14.75;10.48;;;;;;;9.27;100.00;101228.53;5047917;28;20130;-62
2022/05/07 02:10:20;;;;;;;19.92;11.50;;;;;;;9.18;100.00;101217.44;5047712;28;20094;-62
2022/05/07 02:12:46;;;;;;;13.52;10.82;;;;;;;9.14;100.00;101223.69;5066312;28;20915;-62
2022/05/07 02:15:12;;;;;;;13.93;11.52;;;;;;;9.11;100.00;101223.78;5047867;28;20135;-62
2022/05/07 02:17:37;;;;;;;17.48;12.25;;;;;;;9.04;100.00;101214.38;5066286;28;20954;-62
2022/05/07 02:20:03;;;;;;;12.93;10.75;;;;;;;8.96;100.00;101207.63;5066236;28;20023;-62
2022/05/07 02:22:29;;;;;;;15.07;11.05;;;;;;;9.00;100.00;101207.50;5065747;28;20974;-62
2022/05/07 02:24:54;;;;;;;17.48;11.95;;;;;;;8.98;100.00;101205.84;5066293;28;20035;-62
2022/05/07 02:27:20;;;;;;;16.08;11.52;;;;;;;9.04;100.00;101221.38;5066932;28;21088;-62
2022/05/07 02:29:45;;;;;;;21.20;12.82;;;;;;;9.02;100.00;101224.03;5066084;28;20042;-62
2022/05/07 02:32:13;;;;;;;14.15;10.43;;;;;;;8.86;100.00;101193.97;5065821;28;20085;-62
2022/05/07 02:34:39;;;;;;;18.02;10.18;;;;;;;8.94;100.00;101215.56;5066345;28;20085;-62
2022/05/07 02:37:05;;;;;;;17.73;11.15;;;;;;;8.94;100.00;101210.31;5065720;28;20953;-62
2022/05/07 02:39:30;;;;;;;14.25;10.30;;;;;;;8.99;100.00;101218.88;5066135;28;20030;-62
2022/05/07 02:44:40;;;;;;;13.77;10.50;;;;;;;8.98;100.00;101219.81;5066710;28;20264;-62
2022/05/07 02:47:05;;;;;;;14.15;9.65;;;;;;;8.84;100.00;101193.16;5067412;28;20030;-62
2022/05/07 02:49:32;;;;;;;11.93;9.40;;;;;;;8.96;100.00;101229.47;5066096;28;20066;-62
2022/05/07 02:51:57;;;;;;;15.82;11.27;;;;;;;8.94;100.00;101212.09;5067448;28;20023;-62
2022/05/07 02:54:22;;;;;;;11.65;9.93;;;;;;;8.93;100.00;101212.97;5065793;28;20039;-62
2022/05/07 02:56:48;;;;;;;14.30;10.13;;;;;;;8.96;100.00;101213.75;5065720;28;20982;-62
2022/05/07 02:59:13;;;;;;;16.00;11.18;;;;;;;8.95;100.00;101209.44;5065755;28;20035;-62
2022/05/07 03:01:41;;;;;;;16.58;11.02;;;;;;;9.00;100.00;101215.38;5066201;28;20184;-62
2022/05/07 03:04:10;;;;;;;15.05;10.30;;;;;;;9.01;100.00;101211.84;5066259;28;20083;-62
2022/05/07 03:06:36;;;;;;;13.98;9.40;;;;;;;9.01;100.00;101206.63;5066352;28;20024;-62
2022/05/07 03:09:02;;;;;;;16.45;10.25;;;;;;;9.04;100.00;101217.00;5067023;28;20953;-62
2022/05/07 03:11:28;;;;;;;12.50;9.90;;;;;;;9.02;100.00;101203.06;5047732;28;20140;-62
2022/05/07 03:13:53;;;;;;;12.30;9.48;;;;;;;9.04;100.00;101205.66;5068142;28;20035;-62
2022/05/07 03:16:18;;;;;;;13.05;9.32;;;;;;;8.97;100.00;101209.38;5052349;28;20880;-62
2022/05/07 03:18:44;;;;;;;14.18;10.15;;;;;;;8.78;100.00;101177.63;5046141;28;20870;-62
2022/05/07 03:21:09;;;;;;;13.10;9.25;;;;;;;8.96;100.00;101203.25;5028500;28;20152;-62
2022/05/07 03:23:35;;;;;;;11.02;8.80;;;;;;;8.95;100.00;101214.66;5045297;28;20063;-62
2022/05/07 03:26:00;;;;;;;11.48;9.55;;;;;;;8.89;100.00;101201.72;5045240;28;20825;-62
2022/05/07 03:28:25;;;;;;;14.63;9.90;;;;;;;8.88;100.00;101218.38;5045977;28;20024;-62
2022/05/07 03:30:51;;;;;;;11.02;9.05;;;;;;;8.83;100.00;101204.53;5048677;28;20802;-63
2022/05/07 03:33:16;;;;;;;14.43;9.45;;;;;;;8.59;100.00;101171.19;5048130;28;20887;-63
2022/05/07 03:35:43;;;;;;;13.35;9.95;;;;;;;8.72;100.00;101204.00;5047587;28;20024;-62
2022/05/07 03:38:09;;;;;;;11.02;8.88;;;;;;;8.67;100.00;101200.66;5048278;28;20034;-62
2022/05/07 03:40:34;;;;;;;10.57;9.32;;;;;;;8.54;100.00;101178.34;5048338;28;20032;-62
2022/05/07 03:43:01;;;;;;;14.38;9.48;;;;;;;8.63;100.00;101194.66;5048307;28;20943;-62
2022/05/07 03:45:27;;;;;;;11.30;8.88;;;;;;;8.70;100.00;101208.44;5029567;28;20032;-62
2022/05/07 03:47:53;;;;;;;13.27;9.05;;;;;;;8.52;100.00;101177.53;5047490;28;20027;-62
2022/05/07 03:50:18;;;;;;;11.50;8.75;;;;;;;8.59;100.00;101202.63;5048358;28;20904;-62
2022/05/07 03:55:28;;;;;;;12.57;10.70;;;;;;;8.32;100.00;101156.28;5049423;28;20913;-62
2022/05/07 03:57:56;;;;;;;12.90;9.68;;;;;;;7.83;100.00;101076.53;5048534;28;20024;-63
2022/05/07 04:00:22;;;;;;;12.70;10.13;;;;;;;8.57;100.00;101207.06;5050308;28;20084;-62
2022/05/07 04:02:47;;;;;;;12.18;10.00;;;;;;;8.60;100.00;101210.47;5050004;28;20899;-62
2022/05/07 04:05:13;;;;;;;12.18;9.68;;;;;;;8.63;100.00;101220.00;5049258;28;20833;-61
2022/05/07 04:07:38;;;;;;;12.10;9.95;;;;;;;8.66;100.00;101219.91;5048729;28;20020;-61
2022/05/07 04:10:05;;;;;;;15.18;10.57;;;;;;;8.63;100.00;101209.50;5049015;28;20030;-62
2022/05/07 04:12:30;;;;;;;10.55;8.80;;;;;;;8.70;100.00;101217.16;5046977;28;20190;-61
2022/05/07 04:15:03;;;;;;;15.63;9.45;;;;;;;8.75;100.00;101214.41;5047830;28;20886;-62
2022/05/07 04:17:29;;;;;;;16.40;9.73;;;;;;;8.79;100.00;101213.38;5047681;28;20024;-62
2022/05/07 04:19:54;;;;;;;14.25;9.38;;;;;;;8.78;100.00;101208.22;5047471;28;20028;-62
2022/05/07 04:22:20;;;;;;;13.00;9.82;;;;;;;8.69;100.00;101183.13;5047572;28;20040;-62
2022/05/07 04:24:46;;;;;;;14.75;10.18;;;;;;;8.90;100.00;101197.34;5046860;28;20792;-62
2022/05/07 04:27:11;;;;;;;13.20;9.30;;;;;;;8.79;100.00;101178.50;5047034;28;20028;-61
2022/05/07 04:29:37;;;;;;;10.63;9.20;;;;;;;9.11;100.00;101213.28;5048879;28;20027;-61
2022/05/07 04:32:03;;;;;;;12.98;9.80;;;;;;;9.09;100.00;101209.00;5034727;28;20877;-61
2022/05/07 04:34:29;;;;;;;12.85;9.20;;;;;;;9.21;100.00;101227.81;5049926;28;20023;-61
2022/05/07 04:36:56;;;;;;;13.15;10.38;;;;;;;9.30;100.00;101223.19;5049334;28;20036;-61
2022/05/07 04:39:21;;;;;;;11.73;9.80;;;;;;;9.41;100.00;101236.81;5049747;28;20039;-61
2022/05/07 04:41:46;;;;;;;13.75;9.95;;;;;;;9.38;100.00;101218.56;5048218;28;20052;-61
2022/05/07 04:44:12;;;;;;;19.52;10.98;;;;;;;9.40;100.00;101214.97;5049126;28;20899;-61
2022/05/07 04:46:39;;;;;;;13.82;11.07;;;;;;;9.56;100.00;101220.59;5049153;28;20023;-61
2022/05/07 04:49:05;;;;;;;11.85;10.07;;;;;;;9.58;100.00;101218.78;5050578;28;20028;-62
2022/05/07 04:51:31;;;;;;;14.10;9.88;;;;;;;9.70;100.00;101226.22;5049812;28;20091;-62
2022/05/07 04:53:56;;;;;;;12.18;10.50;;;;;;;9.82;100.00;101223.22;5049332;28;21031;-61
2022/05/07 04:56:24;;;;;;;13.68;9.73;;;;;;;9.85;100.00;101215.22;5031101;28;20138;-61
2022/05/07 04:58:53;;;;;;;13.35;10.35;;;;;;;9.99;100.00;101226.13;5049840;28;20024;-62
2022/05/07 05:01:18;;;;;;;11.50;9.98;;;;;;;10.12;100.00;101224.78;5054657;28;20132;-62
2022/05/07 05:03:44;;;;;;;15.40;10.82;;;;;;;10.19;100.00;101222.81;5050739;28;20032;-62
2022/05/07 05:06:09;;;;;;;14.75;11.27;;;;;;;10.08;100.00;101199.53;5050382;28;20125;-61
2022/05/07 05:08:34;;;;;;;14.68;10.77;;;;;;;9.98;100.00;101171.88;5050213;28;20030;-63
2022/05/07 05:11:00;;;;;;;12.30;10.85;;;;;;;10.31;100.00;101217.13;5051630;28;20031;-62
2022/05/07 05:13:25;;;;;;;14.65;10.73;;;;;;;10.45;100.00;101235.00;5052447;28;20024;-62
2022/05/07 05:15:51;;;;;;;15.60;10.73;;;;;;;10.57;100.00;101239.84;5052621;28;20764;-62
2022/05/07 05:18:16;;;;;;;16.92;9.85;;;;;;;10.55;100.00;101229.38;5053773;28;20032;-61
2022/05/07 05:20:41;;;;;;;11.65;10.00;;;;;;;10.73;100.00;101247.09;5056687;28;20028;-62
2022/05/07 05:23:07;;;;;;;12.20;9.60;;;;;;;10.77;100.00;101247.84;5059681;28;20142;-61
2022/05/07 05:25:32;;;;;;;12.57;10.50;;;;;;;10.88;100.00;101261.47;5060152;28;20168;-61
2022/05/07 05:27:57;;;;;;;13.10;9.32;;;;;;;10.90;100.00;101264.00;5061555;28;20024;-62
2022/05/07 05:30:24;;;;;;;13.80;9.57;;;;;;;10.86;100.00;101265.91;5061831;28;20032;-62
2022/05/07 05:32:49;;;;;;;16.42;12.45;;;;;;;10.50;100.00;101225.22;5044511;28;20787;-62
2022/05/07 05:35:15;;;;;;;14.90;11.95;;;;;;;10.47;100.00;101249.84;5067628;28;20028;-62
2022/05/07 05:37:40;;;;;;;15.95;12.60;;;;;;;10.42;100.00;101254.38;5067552;28;20032;-62
2022/05/07 05:40:06;;;;;;;19.48;12.70;;;;;;;10.20;100.00;101225.41;5068447;28;20020;-62
2022/05/07 05:42:31;;;;;;;19.35;12.93;;;;;;;10.36;100.00;101259.88;5069772;28;20048;-62
2022/05/07 05:44:57;;;;;;;14.30;12.65;;;;;;;10.23;100.00;101248.94;5066029;28;20036;-62
2022/05/07 05:47:22;;;;;;;18.05;13.10;;;;;;;10.25;100.00;101264.63;5068299;28;20785;-62
2022/05/07 05:49:48;;;;;;;17.58;13.38;;;;;;;10.29;100.00;101265.38;5069289;28;20031;-62
2022/05/07 05:52:13;;;;;;;20.38;14.57;;;;;;;10.29;100.00;101260.13;5068876;28;20027;-62
2022/05/07 05:54:38;;;;;;;20.67;13.95;;;;;;;10.29;100.00;101263.59;5068063;28;20843;-62
2022/05/07 05:57:04;;;;;;;17.13;14.55;;;;;;;10.41;100.00;101272.84;5068588;28;20042;-62
2022/05/07 05:59:30;;;;;;;16.05;14.43;;;;;;;10.43;100.00;101263.13;5070964;28;20621;-62
2022/05/07 06:01:55;;;;;;;18.27;15.30;;;;;;;10.54;100.00;101276.75;5080490;28;20042;-62
2022/05/07 06:04:21;;;;;;;18.35;14.95;;;;;;;10.29;100.00;101212.84;5068075;28;20027;-62
2022/05/07 06:06:46;;;;;;;22.67;14.90;;;;;;;10.70;100.00;101278.75;5047294;28;20727;-62
2022/05/07 06:09:11;;;;;;;21.30;15.55;;;;;;;10.76;100.00;101273.28;5048112;28;20025;-62
2022/05/07 06:11:37;;;;;;;20.60;15.38;;;;;;;10.84;100.00;101269.50;5047328;28;20025;-62
2022/05/07 06:14:02;;;;;;;16.77;14.95;;;;;;;10.96;100.00;101277.78;5046527;28;20028;-61
2022/05/07 06:16:29;;;;;;;19.42;15.30;;;;;;;10.91;100.00;101266.59;5047528;28;20035;-62
2022/05/07 06:18:54;;;;;;;21.40;15.25;;;;;;;11.03;100.00;101281.91;5049211;28;20504;-61
2022/05/07 06:21:20;;;;;;;18.38;15.70;;;;;;;11.09;100.00;101286.06;5045907;28;20830;-62
2022/05/07 06:23:45;;;;;;;19.10;16.23;;;;;;;11.23;100.00;101289.88;5059899;28;20028;-62
2022/05/07 06:28:55;;;;;;;19.20;13.63;;;;;;;11.56;100.00;101281.56;5044618;28;20101;-61
2022/05/07 06:31:20;;;;;;;18.13;14.88;;;;;;;11.69;100.00;101280.19;5043444;28;20828;-61
2022/05/07 06:33:46;;;;;;;15.75;14.02;;;;;;;11.88;100.00;101293.47;5041028;28;20036;-62
2022/05/07 06:36:11;;;;;;;25.63;14.45;;;;;;;11.83;100.00;101263.84;5041266;28;20027;-62
2022/05/07 06:38:37;;;;;;;19.65;13.13;;;;;;;12.20;100.00;101296.47;5037744;28;20132;-62
2022/05/07 06:41:04;;;;;;;15.68;12.55;;;;;;;12.32;100.00;101297.75;5034485;28;20040;-63
2022/05/07 06:43:30;;;;;;;16.52;12.40;;;;;;;12.32;100.00;101270.53;5034978;28;20063;-62
2022/05/07 06:45:56;;;;;;;19.20;13.40;;;;;;;12.59;100.00;101300.97;5032160;28;20025;-62
2022/05/07 06:48:22;;;;;;;17.50;11.73;;;;;;;12.71;100.00;101308.31;5030756;28;20035;-62
2022/05/07 06:50:47;;;;;;;18.88;12.38;;;;;;;12.71;100.00;101308.31;5044428;28;20086;-62
2022/05/07 06:53:13;;;;;;;17.40;13.02;;;;;;;12.67;100.00;101285.66;5027923;28;20024;-62
2022/05/07 06:55:54;;;;;;;16.80;12.32;;;;;;;12.77;100.00;101310.69;5027385;28;20828;-62
2022/05/07 06:58:26;;;;;;;12.82;11.32;;;;;;;12.84;100.00;101321.84;5026975;28;20165;-61
2022/05/07 07:00:51;;;;;;;16.60;12.07;;;;;;;12.62;100.00;101296.41;5026021;28;20038;-62
2022/05/07 07:03:17;;;;;;;17.88;12.23;;;;;;;12.68;100.00;101292.63;5026531;28;20957;-62
2022/05/07 07:05:43;;;;;;;14.73;10.82;;;;;;;12.90;100.00;101317.13;5028614;28;20097;-62
2022/05/07 07:08:09;;;;;;;19.88;13.25;;;;;;;12.90;100.00;101309.22;5027963;28;20873;-62
2022/05/07 07:10:34;;;;;;;13.40;10.18;;;;;;;12.95;100.00;101304.56;5036465;28;20027;-62
2022/05/07 07:13:00;;;;;;;16.92;11.25;;;;;;;13.10;100.00;101306.56;5042090;28;20302;-62
2022/05/07 07:15:25;;;;;;;15.52;12.52;;;;;;;13.12;100.00;101290.66;5042550;28;20031;-62
2022/05/07 07:17:51;;;;;;;18.33;12.35;;;;;;;13.39;100.00;101312.25;5033063;28;20989;-62
2022/05/07 07:20:16;;;;;;;13.10;11.23;;;;;;;13.38;100.00;101305.28;5029469;28;20118;-62
2022/05/07 07:22:42;;;;;;;13.45;11.48;;;;;;;13.45;100.00;101318.09;5029354;28;20869;-62
2022/05/07 07:25:08;;;;;;;14.00;12.18;;;;;;;13.56;100.00;101320.25;5039281;28;20028;-62
2022/05/07 07:27:34;;;;;;;17.15;12.25;;;;;;;13.56;100.00;101310.53;5095499;28;20028;-62
2022/05/07 07:29:59;;;;;;;16.73;12.90;;;;;;;13.62;100.00;101304.94;5084303;28;20052;-62
2022/05/07 07:32:25;;;;;;;14.45;11.32;;;;;;;13.46;100.00;101272.28;5074772;28;20067;-62
2022/05/07 07:34:50;;;;;;;17.27;11.80;;;;;;;13.68;100.00;101303.81;5073539;28;20459;-62
2022/05/07 07:37:15;;;;;;;14.38;11.38;;;;;;;13.81;100.00;101316.34;5074157;28;20059;-62
2022/05/07 07:39:41;;;;;;;18.05;12.13;;;;;;;13.75;100.00;101294.66;5039486;28;20127;-62
2022/05/07 07:42:06;;;;;;;13.80;12.30;;;;;;;13.85;100.00;101311.78;5029116;28;20278;-62
2022/05/07 07:44:32;;;;;;;16.23;12.57;;;;;;;13.68;100.00;101269.47;5073224;28;20024;-62
2022/05/07 07:49:45;;;;;;;18.92;11.63;;;;;;;13.98;100.00;101302.31;5045159;28;20041;-62
2022/05/07 07:52:12;;;;;;;24.75;13.88;;;;;;;13.89;100.00;101308.03;5074394;28;20067;-62
2022/05/07 07:54:38;;;;;;;15.05;11.88;;;;;;;13.85;100.00;101321.50;5074365;28;20029;-62
2022/05/07 07:57:04;;;;;;;24.25;11.82;;;;;;;13.65;100.00;101304.81;5073911;28;20036;-62
2022/05/07 07:59:29;;;;;;;15.55;13.45;;;;;;;13.64;100.00;101318.97;5073456;28;20046;-62
2022/05/07 08:01:56;;;;;;;20.20;13.18;;;;;;;13.49;100.00;101319.66;5073364;28;20032;-62
2022/05/07 08:04:22;;;;;;;15.68;12.15;;;;;;;13.32;100.00;101309.91;5081172;28;20024;-62
2022/05/07 08:11:40;;;;;;;14.55;12.57;;;;;;;13.30;100.00;101319.69;5073661;28;20033;-62
2022/05/07 08:12:17;;;;;;;13.98;12.35;;;;;;;13.10;100.00;101303.94;5028320;28;20040;-62
2022/05/07 08:14:43;;;;;;;17.00;14.05;;;;;;;13.16;100.00;101318.63;5027160;28;20028;-62
2022/05/07 08:17:08;;;;;;;13.90;12.40;;;;;;;13.01;100.00;101301.66;5027430;28;20051;-62
2022/05/07 08:19:34;;;;;;;16.98;13.13;;;;;;;13.11;100.00;101308.25;5038386;28;20516;-62
2022/05/07 08:22:00;;;;;;;18.10;14.23;;;;;;;13.11;100.00;101299.50;5073453;28;20020;-62
2022/05/07 08:24:25;;;;;;;19.45;15.32;;;;;;;13.23;100.00;101317.41;5035413;28;20887;-62
2022/05/07 08:26:51;;;;;;;17.48;14.43;;;;;;;13.37;100.00;101320.25;5052887;28;20073;-62
2022/05/07 08:29:16;;;;;;;16.23;13.77;;;;;;;13.41;100.00;101305.13;5074373;28;20455;-62
2022/05/07 08:31:41;;;;;;;18.60;13.52;;;;;;;13.39;100.00;101296.41;5073946;28;20111;-62
2022/05/07 08:34:07;;;;;;;16.08;12.00;;;;;;;13.57;100.00;101308.75;5074089;28;20074;-62
2022/05/07 08:36:32;;;;;;;21.02;14.10;;;;;;;13.74;100.00;101314.09;5070991;28;20531;-62
2022/05/07 08:38:57;;;;;;;22.45;14.25;;;;;;;14.00;100.00;101332.16;5047917;28;20031;-62
2022/05/07 08:41:23;;;;;;;17.13;14.50;;;;;;;14.09;100.00;101326.41;5073093;28;20063;-62
2022/05/07 08:43:50;;;;;;;20.25;14.57;;;;;;;14.13;100.00;101298.88;5043802;28;20033;-62
2022/05/07 08:46:18;;;;;;;16.30;14.02;;;;;;;14.51;100.00;101323.41;5025941;28;20017;-62
2022/05/07 08:48:49;;;;;;;29.42;13.63;;;;;;;14.62;100.00;101326.38;5026025;28;20025;-62
2022/05/07 08:51:16;;;;;;;16.70;13.30;;;;;;;14.81;100.00;101326.25;5026773;28;20943;-62
2022/05/07 08:53:43;;;;;;;16.35;13.35;;;;;;;15.03;100.00;101310.94;5026857;28;20032;-62
2022/05/07 08:56:08;;;;;;;19.30;14.38;;;;;;;15.25;100.00;101319.41;5027565;28;20063;-62
2022/05/07 08:58:34;;;;;;;18.90;13.50;;;;;;;15.32;100.00;101315.50;5029450;28;20222;-63
2022/05/07 09:01:00;;;;;;;18.48;14.35;;;;;;;15.42;100.00;101312.34;5027795;28;20135;-62
2022/05/07 09:03:38;;;;;;;18.95;14.98;;;;;;;15.67;100.00;101324.19;5028209;28;20868;-62
2022/05/07 09:06:23;;;;;;;16.15;14.02;;;;;;;15.84;100.00;101317.91;5028384;28;20029;-62
2022/05/07 09:08:49;;;;;;;18.70;15.07;;;;;;;15.88;100.00;101298.25;5028375;28;20454;-62
2022/05/07 09:11:16;;;;;;;17.70;14.10;;;;;;;16.25;100.00;101326.97;5019496;28;20044;-63
2022/05/07 09:13:42;;;;;;;33.70;15.60;;;;;;;16.49;100.00;101323.81;5031756;28;20036;-62
2022/05/07 09:16:11;;;;;;;18.85;15.05;;;;;;;16.66;100.00;101321.88;5014885;28;20036;-62
2022/05/07 09:18:36;;;;;;;19.80;15.07;;;;;;;16.89;100.00;101320.47;5026474;28;20033;-63
2022/05/07 09:21:19;;;;;;;17.25;14.32;;;;;;;17.09;100.00;101306.81;5013656;28;20075;-63
2022/05/07 09:23:45;;;;;;;19.02;16.08;;;;;;;17.47;100.00;101311.50;5029836;28;20097;-63
2022/05/07 09:26:23;;;;;;;17.58;14.75;;;;;;;17.70;100.00;101309.09;5027347;28;20063;-62
2022/05/07 09:28:49;;;;;;;19.20;15.38;;;;;;;17.64;100.00;101316.63;5011512;28;20034;-62
2022/05/07 09:31:28;;;;;;;20.67;15.80;;;;;;;17.64;100.00;101312.13;5055046;28;20035;-62
2022/05/07 09:36:55;;;;;;;20.00;15.20;;;;;;;17.76;100.00;101302.53;5032186;28;20036;-62
2022/05/07 09:39:20;;;;;;;20.58;15.20;;;;;;;17.84;100.00;101298.41;5047241;28;20094;-62
2022/05/07 09:41:52;;;;;;;19.55;14.77;;;;;;;17.81;100.00;101295.94;5045986;28;20900;-62
2022/05/07 09:44:20;;;;;;;20.83;14.82;;;;;;;17.94;100.00;101311.09;5054498;28;20100;-62
2022/05/07 09:46:45;;;;;;;16.75;13.20;;;;;;;17.97;100.00;101303.78;5073881;28;20056;-63
2022/05/07 09:49:11;;;;;;;18.58;14.23;;;;;;;18.00;100.00;101308.91;5074463;28;20051;-62
2022/05/07 09:51:36;;;;;;;17.77;14.68;;;;;;;18.15;100.00;101307.84;5055878;28;20477;-63
2022/05/07 09:59:31;;;;;;;15.18;13.55;;;;;;;18.69;100.00;101281.97;5031340;28;20165;-62
2022/05/07 10:02:19;;;;;;;21.50;15.48;;;;;;;18.80;100.00;101267.91;5046686;28;20035;-62
2022/05/07 10:05:07;;;;;;;16.27;14.55;;;;;;;19.08;100.00;101296.09;5027813;28;20093;-62
2022/05/07 10:07:43;;;;;;;16.02;13.07;;;;;;;18.92;100.00;101255.53;5037586;28;20040;-62
2022/05/07 10:10:25;;;;;;;14.52;12.98;;;;;;;19.33;100.00;101288.91;5008151;28;20025;-62
2022/05/07 10:12:54;;;;;;;17.15;13.15;;;;;;;19.50;100.00;101292.22;5026577;28;20032;-62
2022/05/07 10:15:23;;;;;;;16.65;13.57;;;;;;;19.63;100.00;101293.00;5067403;28;20044;-62
2022/05/07 10:18:01;;;;;;;19.73;15.90;;;;;;;19.71;100.00;101272.78;5054258;28;20024;-62
2022/05/07 10:20:39;;;;;;;20.63;14.50;;;;;;;19.75;100.00;101278.75;5072032;28;20111;-62
2022/05/07 10:23:07;;;;;;;16.48;14.65;;;;;;;19.70;100.00;101238.25;5040688;28;20040;-62
2022/05/07 10:25:32;;;;;;;15.50;12.70;;;;;;;20.06;100.00;101261.31;5025461;28;20899;-62
2022/05/07 10:28:07;;;;;;;13.05;10.85;;;;;;;20.15;99.19;101253.44;5026679;28;20132;-62
2022/05/07 10:30:44;;;;;;;15.43;12.57;;;;;;;20.36;96.91;101270.53;5025846;28;20044;-62
2022/05/07 10:33:09;;;;;;;18.52;10.40;;;;;;;20.53;99.38;101273.69;5035148;28;20067;-62
2022/05/07 10:35:42;;;;;;;16.85;12.85;;;;;;;20.65;94.69;101281.59;5053897;28;20052;-62
2022/05/07 10:38:09;;;;;;;17.20;12.05;;;;;;;20.85;92.47;101288.09;5071719;28;20025;-62
2022/05/07 10:40:34;;;;;;;12.27;9.82;;;;;;;20.85;87.65;101245.34;5041034;28;20036;-63
2022/05/07 10:43:00;;;;;;;15.40;11.05;;;;;;;21.15;84.89;101279.47;5048278;28;20028;-62
2022/05/07 10:45:27;;;;;;;13.73;10.73;;;;;;;21.10;85.08;101263.78;5053040;28;20135;-63
2022/05/07 10:47:57;;;;;;;15.32;10.38;;;;;;;20.97;83.35;101255.03;5034661;28;20823;-62
2022/05/07 10:50:23;;;;;;;15.05;10.15;;;;;;;20.84;79.57;101281.03;5038359;28;20039;-62
2022/05/07 10:52:55;;;;;;;16.20;12.63;;;;;;;20.53;81.84;101255.00;5051585;28;20026;-62
2022/05/07 10:55:29;;;;;;;14.63;12.98;;;;;;;20.32;80.86;101277.06;5049193;28;20127;-62
2022/05/07 10:57:57;;;;;;;23.25;14.48;;;;;;;20.16;83.22;101271.16;5049297;28;20038;-62
2022/05/07 11:00:23;;;;;;;19.30;16.42;;;;;;;20.07;84.00;101279.03;5092311;28;20497;-62
2022/05/07 11:02:55;;;;;;;23.15;16.17;;;;;;;20.13;84.48;101258.06;5095531;28;20032;-62
2022/05/07 11:05:31;;;;;;;22.67;16.58;;;;;;;20.39;83.88;101232.06;5049642;28;20020;-62
2022/05/07 11:07:59;;;;;;;20.02;14.43;;;;;;;20.77;74.49;101258.44;5048735;28;20032;-61
2022/05/07 11:10:24;;;;;;;17.75;13.65;;;;;;;20.82;77.30;101221.50;5048904;28;20039;-62
2022/05/07 11:12:50;;;;;;;15.18;11.90;;;;;;;21.42;79.15;101271.91;5048271;28;20036;-61
2022/05/07 11:15:23;;;;;;;13.48;10.80;;;;;;;21.72;76.62;101263.19;5049706;28;20020;-62
2022/05/07 11:17:48;;;;;;;16.75;11.50;;;;;;;22.08;73.80;101265.47;5050926;28;20031;-62
2022/05/07 11:20:14;;;;;;;10.40;7.75;;;;;;;22.48;65.87;101262.06;5048752;28;20039;-61
2022/05/07 11:22:40;;;;;;;7.93;4.07;;;;;;;22.74;60.87;101268.75;5049247;28;20040;-62
2022/05/07 11:25:06;;;;;;;8.75;6.43;;;;;;;23.13;61.33;101265.25;5064478;28;20067;-62
2022/05/07 11:27:34;;;;;;;10.30;5.22;;;;;;;23.05;60.08;101224.00;5049391;28;20436;-62
2022/05/07 11:30:01;;;;;;;17.75;5.13;;;;;;;23.47;59.74;101246.16;5049355;28;20024;-62
2022/05/07 11:32:40;;;;;;;10.95;6.10;;;;;;;23.92;58.43;101252.69;5048965;28;20028;-62